createdAt,value
2022-10-12T00:02:14.882Z,101548.38
2022-10-12T00:07:17.301Z,101548.53
2022-10-12T00:12:19.548Z,101548.84
2022-10-12T00:17:21.862Z,101558.13
2022-10-12T00:22:24.203Z,101546.59
2022-10-12T00:27:26.579Z,101556.91
2022-10-12T00:32:28.861Z,101567.63
2022-10-12T00:37:31.234Z,101568.53
2022-10-12T00:42:33.576Z,101577.94
2022-10-12T00:47:38.888Z,101578.56
2022-10-12T00:52:47.142Z,101573.59
2022-10-12T00:57:50.838Z,101570.28
2022-10-12T01:02:54.314Z,101570.97
2022-10-12T01:07:56.621Z,101581.19
2022-10-12T01:12:59.637Z,101578.03
2022-10-12T01:18:31.488Z,101570.31
2022-10-12T01:24:11.093Z,101572.59
2022-10-12T01:29:37.432Z,101575.34
2022-10-12T01:35:02.271Z,101570.38
2022-10-12T01:40:09.798Z,101562.47
2022-10-12T01:45:14.811Z,101571.84
2022-10-12T01:50:18.862Z,101574.34
2022-10-12T01:55:32.468Z,101578.69
2022-10-12T02:00:42.309Z,101573.44
2022-10-12T02:06:23.112Z,101574.16
2022-10-12T02:11:27.110Z,101568.25
2022-10-12T02:16:33.427Z,101557.19
2022-10-12T02:21:35.856Z,101568.28
2022-10-12T02:26:40.824Z,101570.88
2022-10-12T02:32:07.477Z,101570.50
2022-10-12T02:37:21.705Z,101575.56
2022-10-12T02:42:32.091Z,101573.00
2022-10-12T02:47:37.756Z,101555.47
2022-10-12T02:52:40.430Z,101575.22
2022-10-12T02:57:42.819Z,101561.94
2022-10-12T03:02:45.179Z,101568.28
2022-10-12T03:07:47.465Z,101578.31
2022-10-12T03:12:50.435Z,101571.25
2022-10-12T03:17:52.946Z,101569.53
2022-10-12T03:22:55.300Z,101571.63
2022-10-12T03:27:57.632Z,101563.81
2022-10-12T03:32:59.964Z,101591.69
2022-10-12T03:38:02.344Z,101585.81
2022-10-12T03:43:05.118Z,101590.03
2022-10-12T03:48:08.037Z,101598.31
2022-10-12T03:53:10.580Z,101598.13
2022-10-12T03:58:13.551Z,101592.34
2022-10-12T04:03:15.790Z,101594.84
2022-10-12T04:08:18.094Z,101591.28
2022-10-12T04:13:20.850Z,101598.16
2022-10-12T04:18:23.077Z,101605.59
2022-10-12T04:23:25.370Z,101620.75
2022-10-12T04:28:27.696Z,101619.53
2022-10-12T04:33:29.964Z,101621.22
2022-10-12T04:38:32.308Z,101627.22
2022-10-12T04:43:34.670Z,101633.66
2022-10-12T04:48:37.013Z,101633.03
2022-10-12T04:53:39.561Z,101638.06
2022-10-12T04:58:41.935Z,101644.09
2022-10-12T05:03:44.238Z,101638.91
2022-10-12T05:08:46.554Z,101640.16
2022-10-12T05:13:48.813Z,101643.09
2022-10-12T05:18:51.150Z,101643.94
2022-10-12T05:23:53.492Z,101644.75
2022-10-12T05:28:55.856Z,101641.63
2022-10-12T05:33:58.231Z,101628.50
2022-10-12T05:39:00.587Z,101653.03
2022-10-12T05:44:02.902Z,101654.94
2022-10-12T05:49:05.605Z,101655.16
2022-10-12T05:54:07.857Z,101648.91
2022-10-12T05:59:11.514Z,101649.91
2022-10-12T06:04:13.908Z,101651.97
2022-10-12T06:09:16.338Z,101656.75
2022-10-12T06:14:18.635Z,101660.66
2022-10-12T06:19:20.976Z,101650.44
2022-10-12T06:24:23.294Z,101659.34
2022-10-12T06:29:25.602Z,101667.13
2022-10-12T06:34:27.933Z,101674.53
2022-10-12T06:39:30.296Z,101675.63
2022-10-12T06:44:32.943Z,101675.47
2022-10-12T06:49:35.292Z,101670.50
2022-10-12T06:54:37.658Z,101682.50
2022-10-12T06:59:40.242Z,101682.63
2022-10-12T07:04:42.550Z,101671.09
2022-10-12T07:09:44.879Z,101675.25
2022-10-12T07:14:47.139Z,101687.69
2022-10-12T07:19:49.446Z,101677.63
2022-10-12T07:24:51.745Z,101683.19
2022-10-12T07:29:54.014Z,101691.88
2022-10-12T07:34:56.292Z,101693.53
2022-10-12T07:39:58.626Z,101695.53
2022-10-12T07:45:00.931Z,101694.22
2022-10-12T07:50:03.198Z,101693.66
2022-10-12T07:55:05.868Z,101693.13
2022-10-12T08:00:08.667Z,101697.38
2022-10-12T08:05:13.866Z,101699.91
2022-10-12T08:10:16.744Z,101694.25
2022-10-12T08:15:19.230Z,101689.94
2022-10-12T08:20:21.622Z,101687.91
2022-10-12T08:25:23.955Z,101680.47
2022-10-12T08:30:27.177Z,101687.44
2022-10-12T08:35:29.569Z,101688.94
2022-10-12T08:40:35.407Z,101692.56
2022-10-12T08:45:52.507Z,101692.13
2022-10-12T08:56:04.846Z,101693.34
2022-10-12T09:01:38.608Z,101684.53
2022-10-12T09:06:44.929Z,101678.84
2022-10-12T09:11:47.170Z,101682.28
2022-10-12T09:16:50.565Z,101676.66
2022-10-12T09:21:52.901Z,101676.63
2022-10-12T09:27:00.632Z,101672.06
2022-10-12T09:32:21.705Z,101664.50
2022-10-12T09:37:27.063Z,101668.94
2022-10-12T09:42:29.341Z,101671.44
2022-10-12T09:47:33.321Z,101684.44
2022-10-12T09:52:45.040Z,101677.84
2022-10-12T09:57:54.818Z,101682.09
2022-10-12T10:02:57.853Z,101682.56
2022-10-12T10:08:21.234Z,101682.63
2022-10-12T10:13:26.194Z,101673.38
2022-10-12T10:18:59.651Z,101671.47
2022-10-12T10:24:06.997Z,101680.31
2022-10-12T10:29:22.773Z,101684.47
2022-10-12T10:34:25.340Z,101675.66
2022-10-12T10:39:31.591Z,101675.84
2022-10-12T10:44:34.507Z,101673.91
2022-10-12T10:49:51.302Z,101675.59
2022-10-12T10:55:11.776Z,101665.78
2022-10-12T11:00:37.871Z,101668.91
2022-10-12T11:05:46.287Z,101667.53
2022-10-12T11:10:57.186Z,101656.31
2022-10-12T11:16:15.015Z,101656.34
2022-10-12T11:21:55.601Z,101649.81
2022-10-12T11:27:04.125Z,101651.97
2022-10-12T11:32:15.203Z,101645.66
2022-10-12T11:37:22.848Z,101647.59
2022-10-12T11:42:34.330Z,101649.78
2022-10-12T11:47:44.146Z,101635.22
2022-10-12T11:52:48.362Z,101640.63
2022-10-12T11:57:51.647Z,101638.41
2022-10-12T12:03:03.343Z,101636.63
2022-10-12T12:08:05.723Z,101638.69
2022-10-12T12:13:14.901Z,101647.59
2022-10-12T12:18:21.608Z,101646.56
2022-10-12T12:23:38.529Z,101640.19
2022-10-12T12:28:47.125Z,101630.44
2022-10-12T12:33:52.143Z,101637.91
2022-10-12T12:38:54.891Z,101631.69
2022-10-12T12:43:57.290Z,101643.44
2022-10-12T12:49:00.347Z,101626.38
2022-10-12T12:54:19.160Z,101634.88
2022-10-12T12:59:48.776Z,101636.56
2022-10-12T13:05:21.139Z,101640.16
2022-10-12T13:10:39.818Z,101644.59
2022-10-12T13:15:42.070Z,101641.28
2022-10-12T13:20:47.580Z,101633.56
2022-10-12T13:25:57.109Z,101635.81
2022-10-12T13:31:22.261Z,101634.16
2022-10-12T13:36:27.320Z,101624.53
2022-10-12T13:41:30.577Z,101633.88
2022-10-12T13:46:46.292Z,101633.03
2022-10-12T13:51:52.172Z,101636.34
2022-10-12T13:57:01.215Z,101642.28
2022-10-12T14:02:04.168Z,101628.91
2022-10-12T14:07:08.493Z,101628.63
2022-10-12T14:12:11.971Z,101628.06
2022-10-12T14:17:19.139Z,101635.34
2022-10-12T14:22:25.349Z,101623.34
2022-10-12T14:27:29.480Z,101624.47
2022-10-12T14:32:41.243Z,101626.84
2022-10-12T14:37:43.529Z,101634.53
2022-10-12T14:43:01.151Z,101626.88
2022-10-12T14:48:05.156Z,101617.31
2022-10-12T14:53:11.710Z,101618.44
2022-10-12T14:58:16.570Z,101612.72
2022-10-12T15:03:20.306Z,101610.47
2022-10-12T15:08:22.810Z,101611.81
2022-10-12T15:13:25.299Z,101612.13
2022-10-12T15:18:27.993Z,101598.75
2022-10-12T15:23:30.358Z,101591.84
2022-10-12T15:28:33.217Z,101603.41
2022-10-12T15:33:35.558Z,101606.91
2022-10-12T15:38:37.848Z,101601.66
2022-10-12T15:43:42.062Z,101605.19
2022-10-12T15:48:44.774Z,101609.50
2022-10-12T15:53:47.173Z,101594.94
2022-10-12T15:58:49.810Z,101597.31
2022-10-12T16:03:52.165Z,101600.22
2022-10-12T16:08:54.463Z,101600.75
2022-10-12T16:13:57.118Z,101602.28
2022-10-12T16:18:59.606Z,101595.38
2022-10-12T16:24:01.862Z,101611.91
2022-10-12T16:29:04.205Z,101605.06
2022-10-12T16:34:06.458Z,101606.06
2022-10-12T16:39:08.958Z,101615.63
2022-10-12T16:44:11.233Z,101610.56
2022-10-12T16:49:13.590Z,101605.84
2022-10-12T16:54:16.294Z,101610.56
2022-10-12T16:59:18.714Z,101619.56
2022-10-12T17:04:21.249Z,101616.81
2022-10-12T17:09:23.638Z,101617.34
2022-10-12T17:14:26.528Z,101618.56
2022-10-12T17:19:32.219Z,101619.47
2022-10-12T17:24:36.170Z,101615.97
2022-10-12T17:29:42.171Z,101615.31
2022-10-12T17:34:45.122Z,101613.97
2022-10-12T17:39:50.517Z,101622.50
2022-10-12T17:44:52.828Z,101620.44
2022-10-12T17:49:55.211Z,101625.16
2022-10-12T17:54:57.517Z,101623.41
2022-10-12T18:00:00.028Z,101623.38
2022-10-12T18:05:02.431Z,101621.44
2022-10-12T18:10:05.925Z,101613.41
2022-10-12T18:15:08.667Z,101625.22
2022-10-12T18:20:11.788Z,101624.50
2022-10-12T18:25:15.662Z,101627.66
2022-10-12T18:30:18.001Z,101622.66
2022-10-12T18:35:20.554Z,101616.72
2022-10-12T18:40:23.028Z,101609.41
2022-10-12T18:45:25.346Z,101623.69
2022-10-12T18:50:27.738Z,101620.25
2022-10-12T18:55:30.059Z,101621.91
2022-10-12T19:00:32.777Z,101614.28
2022-10-12T19:05:35.265Z,101618.16
2022-10-12T19:10:41.003Z,101607.09
2022-10-12T19:15:43.360Z,101624.44
2022-10-12T19:20:45.631Z,101617.88
2022-10-12T19:25:48.293Z,101629.19
2022-10-12T19:30:50.653Z,101627.28
2022-10-12T19:35:53.189Z,101620.59
2022-10-12T19:40:55.449Z,101614.44
2022-10-12T19:46:02.845Z,101618.41
2022-10-12T19:51:08.365Z,101580.84
2022-10-12T19:56:14.119Z,101616.72
2022-10-12T20:01:30.799Z,101612.00
2022-10-12T20:06:33.261Z,101604.41
2022-10-12T20:11:35.868Z,101613.00
2022-10-12T20:16:38.414Z,101608.25
2022-10-12T20:21:40.707Z,101607.63
2022-10-12T20:26:43.652Z,101599.28
2022-10-12T20:31:45.925Z,101611.16
2022-10-12T20:36:48.265Z,101605.84
2022-10-12T20:41:50.577Z,101606.31
2022-10-12T20:46:52.951Z,101612.00
2022-10-12T20:51:55.295Z,101606.03
2022-10-12T20:56:57.729Z,101611.09
2022-10-12T21:02:00.019Z,101610.47
2022-10-12T21:07:02.273Z,101610.47
2022-10-12T21:12:04.681Z,101617.13
2022-10-12T21:17:06.978Z,101609.19
2022-10-12T21:22:09.508Z,101610.94
2022-10-12T21:27:11.757Z,101610.41
2022-10-12T21:32:14.027Z,101617.91
2022-10-12T21:37:16.387Z,101615.22
2022-10-12T21:42:19.019Z,101616.94
2022-10-12T21:47:21.575Z,101620.50
2022-10-12T21:52:23.934Z,101617.69
2022-10-12T21:57:26.236Z,101625.22
2022-10-12T22:02:28.488Z,101623.13
2022-10-12T22:07:30.815Z,101618.97
2022-10-12T22:12:33.501Z,101615.50
2022-10-12T22:17:36.073Z,101620.28
2022-10-12T22:22:38.399Z,101616.38
2022-10-12T22:27:40.722Z,101615.78
2022-10-12T22:32:43.015Z,101617.28
2022-10-12T22:37:45.572Z,101616.47
2022-10-12T22:42:47.810Z,101617.72
2022-10-12T22:47:50.038Z,101622.94
2022-10-12T22:52:52.323Z,101617.59
2022-10-12T22:57:54.591Z,101611.34
2022-10-12T23:02:56.834Z,101604.03
2022-10-12T23:07:59.548Z,101600.53
2022-10-12T23:13:01.863Z,101613.88
2022-10-12T23:18:04.435Z,101612.66
2022-10-12T23:23:06.972Z,101615.13
2022-10-12T23:28:09.237Z,101605.47
2022-10-12T23:33:11.482Z,101618.53
2022-10-12T23:38:14.137Z,101609.97
2022-10-12T23:43:16.398Z,101610.72
2022-10-12T23:48:18.783Z,101612.78
2022-10-12T23:53:22.225Z,101598.16
2022-10-12T23:58:24.581Z,101605.44
